Terminal Aerodrome Forecast
Issued by NWS

Home | Current Version | Previous Version | Text Only | Print | Product List | Glossary On
Versions: 1 2 3 4 5 6 7 8 9 10 11 12 13
875
FTUS45 KRIW 160531
TAFBPI
TAF
KBPI 160531Z 1606/1706 VRB04KT P6SM BKN025
     FM161900 VRB05KT P6SM FEW025
     FM170300 35007KT P6SM SCT090=

USA.gov is the U.S. government's official web portal to all federal, state and local government web resources and services.